Flight Track Log - Related Links

Times and Time Zones

All times are in EDT time to prevent confusion due to time zone crossing. See the CSZ9721 flight status page for this flight to view local times or setup timezone preferences in your user account.

Time Position Orientation Groundspeed Altitude Reporting Facility
EDT Latitude Longitude Course Direction KTS MPH feet Rate Location/Type
Sat 06:54:00 AM 23.2002 114.0787 24° Northeast  Level Estimated
Sat 06:55:00 AM 23.2936 114.1233 24° Northeast  Level Estimated
Sat 06:56:00 AM 23.3871 114.1679 24° Northeast  Level Estimated
Sat 06:57:00 AM 23.4804 114.2126 24° Northeast  Level Estimated
Sat 06:58:00 AM 23.5738 114.2574 24° Northeast  Level Estimated
Sat 06:59:00 AM 23.6672 114.3023 24° Northeast  Level Estimated
Sat 07:00:00 AM 23.7605 114.3472 24° Northeast  Level Estimated
Sat 07:01:00 AM 23.8539 114.3922 24° Northeast  Level Estimated
Sat 07:02:00 AM 23.9472 114.4372 24° Northeast  Level Estimated
Sat 07:03:00 AM 24.0405 114.4823 24° Northeast  Level Estimated
Sat 07:04:00 AM 24.1338 114.5275 24° Northeast  Level Estimated
Sat 07:05:00 AM 24.2271 114.5727 24° Northeast  Level Estimated
Sat 07:06:00 AM 24.3204 114.6180 24° Northeast  Level Estimated
Sat 07:07:00 AM 24.4136 114.6634 24° Northeast  Level Estimated
Sat 07:08:00 AM 24.5069 114.7088 24° Northeast  Level Estimated
Sat 07:09:00 AM 24.6001 114.7543 24° Northeast  Level Estimated
Sat 07:10:00 AM 24.6933 114.7999 24° Northeast  Level Estimated
Sat 07:11:00 AM 24.7866 114.8455 24° Northeast  Level Estimated
Sat 07:12:00 AM 24.8797 114.8912 24° Northeast  Level Estimated
Sat 07:13:00 AM 24.9729 114.9370 24° Northeast  Level Estimated
Sat 07:14:00 AM 25.0661 114.9829 24° Northeast  Level Estimated
Sat 07:15:00 AM 25.1592 115.0288 24° Northeast  Level Estimated
Sat 07:16:00 AM 25.2524 115.0748 24° Northeast  Level Estimated
Sat 07:17:00 AM 25.3455 115.1208 24° Northeast  Level Estimated
Sat 07:18:00 AM 25.4386 115.1670 24° Northeast  Level Estimated
Sat 07:19:00 AM 25.5317 115.2132 24° Northeast  Level Estimated
Sat 07:20:00 AM 25.6248 115.2594 24° Northeast  Level Estimated
Sat 07:21:00 AM 25.7178 115.3058 24° Northeast  Level Estimated
Sat 07:22:00 AM 25.8109 115.3522 24° Northeast  Level Estimated
Sat 07:23:00 AM 25.9039 115.3987 24° Northeast  Level Estimated
Sat 07:24:00 AM 25.9969 115.4452 24° Northeast  Level Estimated
Sat 07:25:00 AM 26.0899 115.4919 24° Northeast  Level Estimated
Sat 07:26:00 AM 26.1829 115.5386 24° Northeast  Level Estimated
Sat 07:27:00 AM 26.2759 115.5854 24° Northeast  Level Estimated
Sat 07:28:00 AM 26.3689 115.6322 24° Northeast  Level Estimated
Sat 07:29:00 AM 26.4618 115.6792 24° Northeast  Level Estimated
Sat 07:30:00 AM 26.5547 115.7262 24° Northeast  Level Estimated
Sat 07:31:00 AM 26.6476 115.7732 24° Northeast  Level Estimated
Sat 07:32:00 AM 26.7405 115.8204 24° Northeast  Level Estimated
Sat 07:33:00 AM 26.8334 115.8677 24° Northeast  Level Estimated
Sat 07:34:00 AM 26.9263 115.9150 24° Northeast  Level Estimated
Sat 07:35:00 AM 27.0191 115.9624 24° Northeast  Level Estimated
Sat 07:36:00 AM 27.1120 116.0098 24° Northeast  Level Estimated
Sat 07:37:00 AM 27.2048 116.0574 24° Northeast  Level Estimated
Sat 07:38:00 AM 27.2976 116.1050 25° Northeast  Level Estimated
Sat 07:39:00 AM 27.3904 116.1527 25° Northeast  Level Estimated
Sat 07:40:00 AM 27.4831 116.2005 25° Northeast  Level Estimated
Sat 07:41:00 AM 27.5759 116.2484 25° Northeast  Level Estimated
Sat 07:42:00 AM 27.6686 116.2963 25° Northeast  Level Estimated
Sat 07:43:00 AM 27.7614 116.3444 25° Northeast  Level Estimated
Sat 07:44:00 AM 27.8540 116.3925 25° Northeast  Level Estimated
Sat 07:45:00 AM 27.9467 116.4407 25° Northeast  Level Estimated
Sat 07:46:00 AM 28.0394 116.4890 25° Northeast  Level Estimated
Sat 07:47:00 AM 28.1321 116.5374 25° Northeast  Level Estimated
Sat 07:48:00 AM 28.2247 116.5858 25° Northeast  Level Estimated
Sat 07:49:00 AM 28.3173 116.6343 25° Northeast  Level Estimated
Sat 07:50:00 AM 28.4099 116.6830 25° Northeast  Level Estimated
Sat 07:51:00 AM 28.5025 116.7317 25° Northeast  Level Estimated
Sat 07:52:00 AM 28.5951 116.7804 25° Northeast  Level Estimated
Sat 07:53:00 AM 28.6876 116.8293 25° Northeast  Level Estimated
Sat 07:54:00 AM 28.7801 116.8783 25° Northeast  Level Estimated
Sat 07:55:00 AM 28.8727 116.9273 25° Northeast  Level Estimated
Sat 07:56:00 AM 28.9652 116.9765 25° Northeast  Level Estimated
Sat 07:57:00 AM 29.0576 117.0257 25° Northeast  Level Estimated
Sat 07:58:00 AM 29.1501 117.0750 25° Northeast  Level Estimated
Sat 07:59:00 AM 29.2425 117.1244 25° Northeast  Level Estimated
Sat 08:00:00 AM 29.3350 117.1739 25° Northeast  Level Estimated
Sat 08:01:00 AM 29.3386 117.1758 25° Northeast  Level Estimated
Sat 08:02:00 AM 29.3386 117.1758 69° East  Level Estimated
Sat 08:03:00 AM 29.3386 117.1758 69° East  Level Estimated
Sat 08:04:00 AM 29.3386 117.1758 69° East  Level Estimated
Sat 08:05:00 AM 29.3386 117.1758 69° East  Level Estimated
Sat 08:06:00 AM 29.3386 117.1758 69° East  Level Estimated
Sat 08:07:00 AM 29.3386 117.1758 69° East  Level Estimated
Sat 08:08:00 AM 29.3386 117.1758 69° East  Level Estimated
Sat 08:09:00 AM 29.3386 117.1758 69° East  Level Estimated
Sat 08:10:00 AM 29.3386 117.1758 69° East  Level Estimated
Sat 08:11:00 AM 29.3386 117.1758 69° East  Level Estimated
Sat 08:12:00 AM 29.3386 117.1758 69° East  Level Estimated
Sat 08:13:00 AM 29.3386 117.1758 69° East  Level Estimated
Sat 08:14:00 AM 29.3386 117.1758 69° East  Level Estimated
Sat 08:15:00 AM 29.3386 117.1758 69° East  Level Estimated
Sat 08:16:00 AM 29.3386 117.1758 69° East  Level Estimated

Login

Don't have an account? Register now (free) for customized features, flight alerts, and more!